sensor_id;sensor_type;location;lat;lon;timestamp;P1;durP1;ratioP1;P2;durP2;ratioP2
54917;SDS011;40818;50.562;7.454;2023-05-20T00:06:34;1.98;;;0.30;;
54917;SDS011;40818;50.562;7.454;2023-05-20T00:27:22;0.90;;;0.30;;
54917;SDS011;40818;50.562;7.454;2023-05-20T00:37:26;2.05;;;0.40;;
54917;SDS011;40818;50.562;7.454;2023-05-20T00:47:32;1.25;;;0.35;;
54917;SDS011;40818;50.562;7.454;2023-05-20T00:57:38;3.13;;;0.40;;
54917;SDS011;40818;50.562;7.454;2023-05-20T01:07:50;2.60;;;0.50;;
54917;SDS011;40818;50.562;7.454;2023-05-20T01:17:54;1.40;;;0.40;;
54917;SDS011;40818;50.562;7.454;2023-05-20T01:49:47;1.60;;;0.40;;
54917;SDS011;40818;50.562;7.454;2023-05-20T01:59:53;1.10;;;0.40;;
54917;SDS011;40818;50.562;7.454;2023-05-20T02:20:48;1.48;;;0.40;;
54917;SDS011;40818;50.562;7.454;2023-05-20T02:52:39;1.10;;;0.30;;
54917;SDS011;40818;50.562;7.454;2023-05-20T03:02:42;1.98;;;0.40;;
54917;SDS011;40818;50.562;7.454;2023-05-20T03:23:24;1.17;;;0.40;;
54917;SDS011;40818;50.562;7.454;2023-05-20T03:44:11;1.60;;;0.40;;
54917;SDS011;40818;50.562;7.454;2023-05-20T04:15:29;1.30;;;0.50;;
54917;SDS011;40818;50.562;7.454;2023-05-20T04:25:34;1.48;;;0.50;;
54917;SDS011;40818;50.562;7.454;2023-05-20T04:35:40;2.13;;;0.40;;
54917;SDS011;40818;50.562;7.454;2023-05-20T04:45:44;1.27;;;0.40;;
54917;SDS011;40818;50.562;7.454;2023-05-20T05:06:43;1.08;;;0.40;;
54917;SDS011;40818;50.562;7.454;2023-05-20T05:16:46;2.88;;;0.40;;
54917;SDS011;40818;50.562;7.454;2023-05-20T05:26:54;4.20;;;0.52;;
54917;SDS011;40818;50.562;7.454;2023-05-20T05:47:53;4.07;;;0.60;;
54917;SDS011;40818;50.562;7.454;2023-05-20T05:58:04;2.55;;;0.50;;
54917;SDS011;40818;50.562;7.454;2023-05-20T06:09:15;3.50;;;0.50;;
54917;SDS011;40818;50.562;7.454;2023-05-20T06:19:18;3.75;;;0.55;;
54917;SDS011;40818;50.562;7.454;2023-05-20T06:29:25;4.75;;;0.70;;
54917;SDS011;40818;50.562;7.454;2023-05-20T06:39:29;1.77;;;0.50;;
54917;SDS011;40818;50.562;7.454;2023-05-20T06:49:35;2.10;;;0.60;;
54917;SDS011;40818;50.562;7.454;2023-05-20T06:59:39;3.35;;;0.60;;
54917;SDS011;40818;50.562;7.454;2023-05-20T07:09:46;2.00;;;0.60;;
54917;SDS011;40818;50.562;7.454;2023-05-20T07:19:49;1.67;;;0.60;;
54917;SDS011;40818;50.562;7.454;2023-05-20T07:29:56;1.73;;;0.63;;
54917;SDS011;40818;50.562;7.454;2023-05-20T07:40:00;2.22;;;0.68;;
54917;SDS011;40818;50.562;7.454;2023-05-20T07:50:08;2.90;;;0.60;;
54917;SDS011;40818;50.562;7.454;2023-05-20T08:00:17;6.32;;;0.60;;
54917;SDS011;40818;50.562;7.454;2023-05-20T08:10:24;2.15;;;0.60;;
54917;SDS011;40818;50.562;7.454;2023-05-20T08:20:51;2.28;;;0.70;;
54917;SDS011;40818;50.562;7.454;2023-05-20T08:42:09;3.55;;;0.60;;
54917;SDS011;40818;50.562;7.454;2023-05-20T09:03:13;1.80;;;0.80;;
54917;SDS011;40818;50.562;7.454;2023-05-20T09:13:38;2.20;;;0.90;;
54917;SDS011;40818;50.562;7.454;2023-05-20T09:23:45;2.20;;;0.80;;
54917;SDS011;40818;50.562;7.454;2023-05-20T09:33:52;2.22;;;0.80;;
54917;SDS011;40818;50.562;7.454;2023-05-20T09:43:59;2.10;;;0.80;;
54917;SDS011;40818;50.562;7.454;2023-05-20T09:54:13;1.87;;;0.80;;
54917;SDS011;40818;50.562;7.454;2023-05-20T10:04:20;3.38;;;0.73;;
54917;SDS011;40818;50.562;7.454;2023-05-20T10:14:31;3.28;;;0.75;;
54917;SDS011;40818;50.562;7.454;2023-05-20T10:24:41;2.60;;;1.00;;
54917;SDS011;40818;50.562;7.454;2023-05-20T10:34:48;2.25;;;0.80;;
54917;SDS011;40818;50.562;7.454;2023-05-20T10:55:50;3.28;;;0.90;;
54917;SDS011;40818;50.562;7.454;2023-05-20T11:05:54;3.13;;;1.08;;
54917;SDS011;40818;50.562;7.454;2023-05-20T11:16:00;2.75;;;1.00;;
54917;SDS011;40818;50.562;7.454;2023-05-20T11:26:03;3.20;;;1.10;;
54917;SDS011;40818;50.562;7.454;2023-05-20T11:36:14;3.65;;;0.90;;
54917;SDS011;40818;50.562;7.454;2023-05-20T11:46:30;3.35;;;1.10;;
54917;SDS011;40818;50.562;7.454;2023-05-20T11:56:45;2.80;;;1.00;;
54917;SDS011;40818;50.562;7.454;2023-05-20T12:06:49;3.08;;;1.00;;
54917;SDS011;40818;50.562;7.454;2023-05-20T12:16:55;2.63;;;1.30;;
54917;SDS011;40818;50.562;7.454;2023-05-20T12:26:59;4.75;;;1.00;;
54917;SDS011;40818;50.562;7.454;2023-05-20T12:37:05;2.28;;;0.90;;
54917;SDS011;40818;50.562;7.454;2023-05-20T12:47:09;2.92;;;1.00;;
54917;SDS011;40818;50.562;7.454;2023-05-20T12:57:15;5.50;;;1.05;;
54917;SDS011;40818;50.562;7.454;2023-05-20T13:07:19;9.13;;;1.10;;
54917;SDS011;40818;50.562;7.454;2023-05-20T13:17:24;3.60;;;1.30;;
54917;SDS011;40818;50.562;7.454;2023-05-20T13:27:28;2.90;;;1.20;;
54917;SDS011;40818;50.562;7.454;2023-05-20T13:37:34;4.03;;;1.02;;
54917;SDS011;40818;50.562;7.454;2023-05-20T13:47:37;4.60;;;1.10;;
54917;SDS011;40818;50.562;7.454;2023-05-20T13:57:43;2.97;;;1.20;;
54917;SDS011;40818;50.562;7.454;2023-05-20T14:07:47;2.72;;;1.05;;
54917;SDS011;40818;50.562;7.454;2023-05-20T14:17:53;3.20;;;1.20;;
54917;SDS011;40818;50.562;7.454;2023-05-20T14:27:56;3.78;;;1.10;;
54917;SDS011;40818;50.562;7.454;2023-05-20T14:38:02;5.15;;;1.20;;
54917;SDS011;40818;50.562;7.454;2023-05-20T14:48:06;2.97;;;1.08;;
54917;SDS011;40818;50.562;7.454;2023-05-20T14:58:14;3.10;;;1.05;;
54917;SDS011;40818;50.562;7.454;2023-05-20T15:08:33;5.32;;;1.00;;
54917;SDS011;40818;50.562;7.454;2023-05-20T15:18:39;5.07;;;1.00;;
54917;SDS011;40818;50.562;7.454;2023-05-20T15:28:46;3.33;;;1.10;;
54917;SDS011;40818;50.562;7.454;2023-05-20T15:39:00;2.80;;;1.00;;
54917;SDS011;40818;50.562;7.454;2023-05-20T15:49:04;4.47;;;1.10;;
54917;SDS011;40818;50.562;7.454;2023-05-20T15:59:10;2.33;;;1.00;;
54917;SDS011;40818;50.562;7.454;2023-05-20T16:09:13;3.17;;;1.00;;
54917;SDS011;40818;50.562;7.454;2023-05-20T16:19:19;4.60;;;1.10;;
54917;SDS011;40818;50.562;7.454;2023-05-20T16:39:57;4.00;;;1.20;;
54917;SDS011;40818;50.562;7.454;2023-05-20T16:50:01;2.97;;;1.20;;
54917;SDS011;40818;50.562;7.454;2023-05-20T17:11:01;5.40;;;1.00;;
54917;SDS011;40818;50.562;7.454;2023-05-20T17:21:04;4.40;;;1.10;;
54917;SDS011;40818;50.562;7.454;2023-05-20T17:31:10;4.88;;;1.00;;
54917;SDS011;40818;50.562;7.454;2023-05-20T17:41:14;3.42;;;1.30;;
54917;SDS011;40818;50.562;7.454;2023-05-20T18:02:20;6.55;;;1.40;;
54917;SDS011;40818;50.562;7.454;2023-05-20T18:12:23;3.80;;;1.23;;
54917;SDS011;40818;50.562;7.454;2023-05-20T18:22:29;3.45;;;1.30;;
54917;SDS011;40818;50.562;7.454;2023-05-20T18:32:32;3.05;;;1.23;;
54917;SDS011;40818;50.562;7.454;2023-05-20T18:42:38;3.65;;;1.25;;
54917;SDS011;40818;50.562;7.454;2023-05-20T18:52:42;3.88;;;1.38;;
54917;SDS011;40818;50.562;7.454;2023-05-20T19:02:48;3.15;;;1.25;;
54917;SDS011;40818;50.562;7.454;2023-05-20T19:12:57;3.95;;;1.20;;
54917;SDS011;40818;50.562;7.454;2023-05-20T19:33:56;5.00;;;1.60;;
54917;SDS011;40818;50.562;7.454;2023-05-20T19:43:59;6.80;;;1.90;;
54917;SDS011;40818;50.562;7.454;2023-05-20T19:54:05;3.42;;;1.67;;
54917;SDS011;40818;50.562;7.454;2023-05-20T20:04:09;4.97;;;2.80;;
54917;SDS011;40818;50.562;7.454;2023-05-20T20:14:15;5.07;;;2.03;;
54917;SDS011;40818;50.562;7.454;2023-05-20T20:35:14;5.90;;;3.35;;
54917;SDS011;40818;50.562;7.454;2023-05-20T20:45:17;6.88;;;3.47;;
54917;SDS011;40818;50.562;7.454;2023-05-20T20:55:24;7.82;;;2.88;;
54917;SDS011;40818;50.562;7.454;2023-05-20T21:16:25;6.13;;;3.28;;
54917;SDS011;40818;50.562;7.454;2023-05-20T21:26:28;7.88;;;4.00;;
54917;SDS011;40818;50.562;7.454;2023-05-20T21:36:34;5.45;;;3.38;;
54917;SDS011;40818;50.562;7.454;2023-05-20T21:46:37;6.32;;;4.63;;
54917;SDS011;40818;50.562;7.454;2023-05-20T22:07:07;7.50;;;4.47;;
54917;SDS011;40818;50.562;7.454;2023-05-20T22:17:13;8.55;;;4.55;;
54917;SDS011;40818;50.562;7.454;2023-05-20T22:27:17;7.15;;;3.72;;
54917;SDS011;40818;50.562;7.454;2023-05-20T22:37:23;9.55;;;3.50;;
54917;SDS011;40818;50.562;7.454;2023-05-20T22:47:27;16.60;;;5.07;;
54917;SDS011;40818;50.562;7.454;2023-05-20T23:08:26;8.70;;;5.18;;
54917;SDS011;40818;50.562;7.454;2023-05-20T23:51:06;10.38;;;7.72;;
